Time;durP1;ratioP1;P1;durP2;ratioP2;P2;SDS_P1;SDS_P2;PMS_P1;PMS_P2;Temp;Humidity;BMP_temperature;BMP_pressure;BME280_temperature;BME280_humidity;BME280_pressure;Samples;Min_cycle;Max_cycle;Signal;HPM_P1;HPM_P2
2022/04/09 00:01:25;;;;;;;6.78;2.03;;;5.00;99.90;;;;;;4971854;28;20042;-65
2022/04/09 00:03:51;;;;;;;9.63;2.50;;;5.00;99.90;;;;;;4999564;28;20104;-68
2022/04/09 00:06:17;;;;;;;10.25;2.17;;;5.00;99.90;;;;;;5030255;28;20044;-67
2022/04/09 00:08:43;;;;;;;6.95;1.60;;;5.00;99.90;;;;;;5018644;28;20438;-67
2022/04/09 00:11:09;;;;;;;9.02;1.80;;;5.10;99.90;;;;;;5007074;28;20042;-65
2022/04/09 00:13:36;;;;;;;17.92;2.17;;;5.10;99.90;;;;;;5005823;28;20305;-64
2022/04/09 00:16:02;;;;;;;10.32;3.03;;;5.10;99.90;;;;;;4980484;28;20030;-68
2022/04/09 00:18:27;;;;;;;13.60;2.22;;;5.10;99.90;;;;;;5004094;28;20423;-69
2022/04/09 00:20:55;;;;;;;11.40;2.75;;;5.20;99.90;;;;;;5015290;28;20033;-65
2022/04/09 00:23:23;;;;;;;11.50;2.25;;;5.30;99.90;;;;;;4997757;28;20030;-65
2022/04/09 00:25:49;;;;;;;16.50;3.30;;;5.30;99.90;;;;;;5001088;28;20037;-65
2022/04/09 00:28:15;;;;;;;11.82;2.30;;;5.40;99.90;;;;;;5013288;28;20129;-65
2022/04/09 00:30:41;;;;;;;12.90;2.40;;;5.40;99.90;;;;;;5005990;28;20123;-66
2022/04/09 00:33:07;;;;;;;10.98;2.50;;;5.50;99.90;;;;;;4991493;28;20161;-68
2022/04/09 00:35:32;;;;;;;10.68;2.53;;;5.50;99.90;;;;;;5009795;28;20118;-68
2022/04/09 00:37:58;;;;;;;9.15;1.85;;;5.50;99.90;;;;;;4989518;28;21424;-64
2022/04/09 00:40:25;;;;;;;11.43;2.20;;;5.60;99.90;;;;;;5008520;28;20081;-64
2022/04/09 00:42:52;;;;;;;10.80;2.75;;;5.50;99.90;;;;;;5015550;28;20053;-66
2022/04/09 00:45:18;;;;;;;13.00;2.10;;;5.50;99.90;;;;;;4995463;28;20076;-66
2022/04/09 00:47:44;;;;;;;12.77;2.15;;;5.40;99.90;;;;;;5013656;28;20041;-68
2022/04/09 00:50:11;;;;;;;6.47;1.52;;;5.50;99.90;;;;;;5011837;28;20096;-64
2022/04/09 00:52:45;;;;;;;4.57;1.20;;;5.40;99.90;;;;;;4995777;28;20390;-65
2022/04/09 00:55:10;;;;;;;5.38;1.40;;;5.30;99.90;;;;;;5016942;28;20041;-66
2022/04/09 00:57:40;;;;;;;6.00;1.05;;;5.20;99.90;;;;;;5018559;28;20050;-65
2022/04/09 01:00:09;;;;;;;8.65;2.50;;;5.10;99.90;;;;;;5012583;28;20048;-67
2022/04/09 01:02:44;;;;;;;7.28;1.17;;;5.10;99.90;;;;;;5004733;28;20377;-66
2022/04/09 01:05:12;;;;;;;4.93;0.98;;;5.00;99.90;;;;;;5016376;28;20501;-68
2022/04/09 01:07:39;;;;;;;9.50;1.02;;;5.00;99.90;;;;;;4996416;28;20092;-69
2022/04/09 01:10:08;;;;;;;5.82;1.50;;;5.00;99.90;;;;;;4997552;28;20159;-69
2022/04/09 01:12:36;;;;;;;3.42;0.90;;;5.00;99.90;;;;;;5007834;28;20121;-69
2022/04/09 01:15:08;;;;;;;6.63;0.90;;;5.00;99.90;;;;;;4995010;28;20538;-64
2022/04/09 01:17:37;;;;;;;6.75;1.38;;;5.00;99.90;;;;;;4991661;28;20037;-63
2022/04/09 01:22:34;;;;;;;6.30;1.10;;;4.90;99.90;;;;;;5039256;28;20049;-58
2022/04/09 01:24:59;;;;;;;7.32;1.52;;;4.90;99.90;;;;;;4990694;28;20052;-58
2022/04/09 01:27:25;;;;;;;10.30;1.55;;;4.90;99.90;;;;;;4989196;28;20497;-57
2022/04/09 01:29:51;;;;;;;6.22;1.10;;;4.90;99.90;;;;;;5021827;28;20041;-55
2022/04/09 01:32:19;;;;;;;6.68;1.23;;;4.90;99.90;;;;;;4997269;28;20036;-57
2022/04/09 01:34:44;;;;;;;13.55;3.40;;;4.90;99.90;;;;;;5003044;28;20049;-58
2022/04/09 01:37:11;;;;;;;7.10;2.03;;;4.90;99.90;;;;;;5003307;28;20041;-57
2022/04/09 01:39:37;;;;;;;6.53;1.30;;;4.90;99.90;;;;;;4999437;28;20049;-57
2022/04/09 01:42:03;;;;;;;8.15;1.77;;;4.90;99.90;;;;;;5004399;28;20041;-57
2022/04/09 01:44:29;;;;;;;6.45;1.88;;;4.90;99.90;;;;;;4993250;28;20422;-57
2022/04/09 01:46:54;;;;;;;6.63;1.58;;;4.80;99.90;;;;;;4988034;28;20210;-54
2022/04/09 01:49:20;;;;;;;12.45;1.60;;;4.80;99.90;;;;;;5004359;28;20037;-54
2022/04/09 01:51:49;;;;;;;12.55;1.40;;;4.80;99.90;;;;;;5015980;28;20044;-58
2022/04/09 01:54:14;;;;;;;9.27;2.38;;;4.80;99.90;;;;;;5004068;28;20056;-57
2022/04/09 01:56:41;;;;;;;13.95;3.00;;;4.80;99.90;;;;;;5006731;28;20378;-58
2022/04/09 01:59:06;;;;;;;8.90;1.80;;;4.80;99.90;;;;;;5002050;28;20171;-58
2022/04/09 02:01:33;;;;;;;9.30;1.80;;;4.80;99.90;;;;;;4986742;28;20116;-57
2022/04/09 02:03:59;;;;;;;8.43;1.98;;;4.90;99.90;;;;;;5003405;28;20049;-56
2022/04/09 02:06:25;;;;;;;12.75;1.90;;;4.90;99.90;;;;;;4990815;28;20121;-58
2022/04/09 02:08:51;;;;;;;9.50;1.60;;;4.90;99.90;;;;;;4997875;28;20172;-54
2022/04/09 02:11:17;;;;;;;8.57;1.77;;;4.90;99.90;;;;;;4998059;28;20050;-56
2022/04/09 02:13:43;;;;;;;6.95;1.90;;;4.90;99.90;;;;;;5017955;28;20064;-58
2022/04/09 02:16:08;;;;;;;11.45;2.17;;;4.90;99.90;;;;;;5019407;28;20045;-56
2022/04/09 02:18:34;;;;;;;8.07;1.30;;;4.90;99.90;;;;;;5001272;28;20193;-57
2022/04/09 02:21:00;;;;;;;21.30;3.83;;;4.90;99.90;;;;;;5001148;28;20048;-58
2022/04/09 02:23:25;;;;;;;7.20;1.60;;;5.00;99.90;;;;;;5017441;28;20065;-58
2022/04/09 02:25:51;;;;;;;12.55;2.38;;;5.00;99.90;;;;;;5006116;28;20335;-57
2022/04/09 02:28:17;;;;;;;7.00;1.63;;;5.10;99.90;;;;;;5003854;28;20447;-55
2022/04/09 02:30:43;;;;;;;10.38;1.67;;;5.10;99.90;;;;;;4986047;28;20127;-56
2022/04/09 02:33:08;;;;;;;9.43;1.85;;;5.10;99.90;;;;;;5009777;28;20341;-54
2022/04/09 02:35:34;;;;;;;10.07;1.85;;;5.00;99.90;;;;;;5000146;28;20525;-57
2022/04/09 02:38:00;;;;;;;13.27;2.88;;;5.00;99.90;;;;;;5004808;28;20041;-59
2022/04/09 02:40:25;;;;;;;7.93;2.03;;;5.00;99.90;;;;;;5002795;28;20041;-58
2022/04/09 02:42:51;;;;;;;8.73;2.08;;;4.90;99.90;;;;;;5002616;28;20168;-56
2022/04/09 02:45:17;;;;;;;9.38;2.10;;;4.90;99.90;;;;;;5005093;28;20045;-57
2022/04/09 02:47:42;;;;;;;10.07;2.10;;;4.90;99.90;;;;;;5021731;28;20048;-58
2022/04/09 02:50:10;;;;;;;7.28;1.40;;;4.80;99.90;;;;;;4999507;28;20600;-55
2022/04/09 02:52:41;;;;;;;9.20;1.33;;;4.80;99.90;;;;;;4998180;28;20269;-57
2022/04/09 02:55:08;;;;;;;10.00;1.98;;;4.80;99.90;;;;;;5005825;28;20572;-57
2022/04/09 02:57:36;;;;;;;5.38;1.60;;;4.80;99.90;;;;;;5004299;28;20045;-53
2022/04/09 03:00:05;;;;;;;5.82;1.50;;;4.70;99.90;;;;;;4988163;28;20056;-57
2022/04/09 03:02:31;;;;;;;8.93;1.58;;;4.70;99.90;;;;;;5005815;28;20041;-53
2022/04/09 03:04:57;;;;;;;13.18;1.98;;;4.70;99.90;;;;;;5007110;28;20034;-56
2022/04/09 03:07:23;;;;;;;11.98;1.73;;;4.70;99.90;;;;;;4989806;28;20513;-55
2022/04/09 03:09:49;;;;;;;12.38;2.00;;;4.70;99.90;;;;;;5001407;28;20041;-56
2022/04/09 03:12:15;;;;;;;9.38;1.85;;;4.70;99.90;;;;;;4995670;28;20042;-57
2022/04/09 03:14:43;;;;;;;6.35;1.33;;;4.70;99.90;;;;;;4986486;28;20069;-56
2022/04/09 03:17:10;;;;;;;8.15;1.20;;;4.60;99.90;;;;;;5006876;28;20044;-54
2022/04/09 03:19:35;;;;;;;7.07;1.08;;;4.60;99.90;;;;;;4991073;28;20056;-57
2022/04/09 03:22:01;;;;;;;13.57;3.03;;;4.60;99.90;;;;;;4997941;28;22073;-54
2022/04/09 03:24:27;;;;;;;6.30;1.02;;;4.60;99.90;;;;;;4990159;28;20521;-59
2022/04/09 03:26:52;;;;;;;6.18;1.23;;;4.50;99.90;;;;;;5004156;28;20509;-58
2022/04/09 03:29:18;;;;;;;7.47;1.20;;;4.50;99.90;;;;;;5005679;28;20128;-57
2022/04/09 03:31:44;;;;;;;7.43;1.40;;;4.40;99.90;;;;;;5003887;28;20486;-56
2022/04/09 03:34:10;;;;;;;5.68;1.13;;;4.40;99.90;;;;;;5018018;28;20549;-56
2022/04/09 03:36:38;;;;;;;5.18;1.10;;;4.40;99.90;;;;;;5005906;28;20537;-57
2022/04/09 03:39:04;;;;;;;10.15;1.17;;;4.40;99.90;;;;;;5003808;28;20044;-56
2022/04/09 03:41:29;;;;;;;13.63;1.83;;;4.30;99.90;;;;;;4983568;28;20289;-57
2022/04/09 03:43:55;;;;;;;7.32;2.03;;;4.30;99.90;;;;;;4996720;28;20041;-57
2022/04/09 03:46:21;;;;;;;9.80;1.52;;;4.30;99.90;;;;;;4998346;28;20431;-55
2022/04/09 03:48:47;;;;;;;10.93;1.73;;;4.30;99.90;;;;;;4998938;28;20482;-56
2022/04/09 03:51:12;;;;;;;8.40;1.83;;;4.40;99.90;;;;;;4996889;28;20045;-58
2022/04/09 03:53:38;;;;;;;6.32;1.30;;;4.50;99.90;;;;;;5018639;28;20036;-55
2022/04/09 03:56:05;;;;;;;9.52;1.70;;;4.60;99.90;;;;;;4976364;28;20534;-56
2022/04/09 03:58:31;;;;;;;5.07;1.30;;;4.70;99.90;;;;;;4996337;28;20090;-59
2022/04/09 04:00:57;;;;;;;6.53;1.55;;;4.70;99.90;;;;;;5015170;28;20038;-57
2022/04/09 04:03:25;;;;;;;14.98;2.45;;;4.80;99.90;;;;;;4995583;28;20076;-56
2022/04/09 04:05:51;;;;;;;8.10;1.10;;;4.80;99.90;;;;;;4985576;28;20052;-56
2022/04/09 04:08:17;;;;;;;4.95;1.30;;;4.80;99.90;;;;;;5006975;28;20053;-56
2022/04/09 04:10:43;;;;;;;9.00;1.58;;;4.80;99.90;;;;;;5002861;28;20037;-58
2022/04/09 04:13:09;;;;;;;10.63;1.13;;;4.80;99.90;;;;;;5000313;28;20457;-58
2022/04/09 04:15:34;;;;;;;8.73;1.55;;;4.80;99.90;;;;;;5020693;28;20124;-56
2022/04/09 04:18:00;;;;;;;10.30;1.98;;;4.80;99.90;;;;;;5016999;28;20236;-57
2022/04/09 04:20:27;;;;;;;9.40;1.67;;;4.70;99.90;;;;;;5018158;28;20057;-58
2022/04/09 04:22:53;;;;;;;6.50;1.60;;;4.90;99.90;;;;;;5008373;28;20080;-58
2022/04/09 04:25:19;;;;;;;9.43;1.80;;;4.90;99.90;;;;;;5001737;28;20817;-56
2022/04/09 04:27:46;;;;;;;12.55;1.95;;;4.90;99.90;;;;;;4999991;28;20064;-57
2022/04/09 04:30:13;;;;;;;5.28;1.30;;;4.90;99.90;;;;;;5017490;28;20516;-55
2022/04/09 04:32:40;;;;;;;8.82;1.42;;;4.90;99.90;;;;;;4986846;28;20042;-56
2022/04/09 04:35:06;;;;;;;9.30;1.40;;;4.90;99.90;;;;;;5005366;28;20127;-54
2022/04/09 04:37:46;;;;;;;8.15;1.65;;;4.80;99.90;;;;;;4998824;28;20053;-56
2022/04/09 04:40:13;;;;;;;11.05;1.90;;;4.90;99.90;;;;;;5002596;28;20437;-56
2022/04/09 04:42:39;;;;;;;10.13;1.80;;;4.80;99.90;;;;;;5004309;28;20053;-56
2022/04/09 04:45:11;;;;;;;10.93;1.98;;;4.80;99.90;;;;;;5012511;28;20050;-56
2022/04/09 04:47:48;;;;;;;17.58;2.85;;;4.90;99.90;;;;;;4998273;28;20041;-53
2022/04/09 04:50:15;;;;;;;16.60;2.58;;;5.00;99.90;;;;;;5001415;28;20044;-55
2022/04/09 04:52:41;;;;;;;13.32;2.33;;;5.00;99.90;;;;;;5002665;28;20140;-59
2022/04/09 04:55:08;;;;;;;7.78;2.10;;;5.00;99.90;;;;;;5001578;28;20124;-56
2022/04/09 04:57:46;;;;;;;10.35;1.60;;;5.00;99.90;;;;;;4998514;28;20690;-55
2022/04/09 05:00:16;;;;;;;14.40;2.20;;;5.10;99.90;;;;;;5001690;28;21127;-52
2022/04/09 05:02:42;;;;;;;10.38;1.95;;;5.10;99.90;;;;;;5005185;28;20116;-55
2022/04/09 05:05:08;;;;;;;6.93;1.70;;;5.10;99.90;;;;;;5001258;28;20128;-56
2022/04/09 05:07:51;;;;;;;7.10;3.22;;;5.10;99.90;;;;;;5016198;28;20279;-59
2022/04/09 05:10:22;;;;;;;8.50;2.00;;;5.10;99.90;;;;;;4995982;28;20045;-54
2022/04/09 05:12:49;;;;;;;10.48;2.03;;;5.10;99.90;;;;;;5022289;23;20500;-65
2022/04/09 05:15:17;;;;;;;9.27;1.45;;;5.20;99.90;;;;;;5016136;28;20322;-64
2022/04/09 05:17:43;;;;;;;9.20;1.77;;;5.10;99.90;;;;;;5009093;28;20037;-66
2022/04/09 05:20:12;;;;;;;9.93;1.77;;;5.10;99.90;;;;;;5001303;28;20049;-65
2022/04/09 05:22:41;;;;;;;10.13;1.80;;;5.10;99.90;;;;;;5002445;28;20176;-66
2022/04/09 05:25:08;;;;;;;8.07;1.73;;;5.00;99.90;;;;;;4999829;28;20042;-66
2022/04/09 05:27:34;;;;;;;9.98;2.00;;;5.00;99.90;;;;;;4998586;28;20042;-64
2022/04/09 05:30:00;;;;;;;8.85;1.92;;;5.00;99.90;;;;;;4981513;28;20052;-67
2022/04/09 05:32:25;;;;;;;11.18;2.70;;;5.00;99.90;;;;;;5007944;28;20046;-64
2022/04/09 05:34:51;;;;;;;13.02;2.20;;;5.00;99.90;;;;;;5001038;28;20049;-64
2022/04/09 05:37:17;;;;;;;14.05;1.85;;;5.00;99.90;;;;;;5013013;28;20041;-71
2022/04/09 05:39:43;;;;;;;13.48;2.50;;;5.00;99.90;;;;;;5015376;28;20026;-67
2022/04/09 05:42:12;;;;;;;10.98;2.55;;;5.00;99.90;;;;;;4999943;28;20462;-66
2022/04/09 05:44:38;;;;;;;13.23;1.88;;;5.00;99.90;;;;;;5001037;28;20044;-64
2022/04/09 05:47:04;;;;;;;14.75;2.80;;;5.10;99.90;;;;;;4994919;28;20045;-67
2022/04/09 05:49:30;;;;;;;12.32;2.35;;;5.10;99.90;;;;;;4998467;28;20164;-70
2022/04/09 05:51:57;;;;;;;12.70;2.35;;;5.20;99.90;;;;;;5000204;28;20574;-70
2022/04/09 05:54:23;;;;;;;19.75;2.55;;;5.20;99.90;;;;;;5002096;28;20455;-65
2022/04/09 05:56:48;;;;;;;12.00;3.17;;;5.20;99.90;;;;;;4994532;28;20046;-64
2022/04/09 05:59:14;;;;;;;12.13;2.20;;;5.30;99.90;;;;;;4997362;28;20042;-67
2022/04/09 06:01:40;;;;;;;15.73;2.42;;;5.30;99.90;;;;;;5002959;28;20037;-68
2022/04/09 06:04:09;;;;;;;9.15;2.08;;;5.40;99.90;;;;;;4993280;28;20696;-66
2022/04/09 06:06:37;;;;;;;13.27;2.47;;;5.60;99.90;;;;;;4993727;28;20032;-69
2022/04/09 06:09:04;;;;;;;9.88;2.03;;;5.60;99.90;;;;;;4999846;28;20121;-66
2022/04/09 06:11:30;;;;;;;9.20;2.30;;;5.50;99.90;;;;;;5001645;28;20041;-65
2022/04/09 06:13:56;;;;;;;14.23;3.08;;;5.50;99.90;;;;;;5001036;28;20042;-65
2022/04/09 06:16:22;;;;;;;12.50;2.10;;;5.50;99.90;;;;;;4986920;28;20037;-65
2022/04/09 06:18:48;;;;;;;13.25;2.83;;;5.40;99.90;;;;;;5002138;28;20040;-71
2022/04/09 06:21:14;;;;;;;11.55;1.92;;;5.40;99.90;;;;;;5002341;28;20631;-70
2022/04/09 06:23:40;;;;;;;13.00;1.98;;;5.50;99.90;;;;;;4996456;28;20056;-67
2022/04/09 06:26:06;;;;;;;12.70;2.10;;;5.60;99.90;;;;;;4997919;28;20052;-68
2022/04/09 06:28:34;;;;;;;11.75;2.17;;;5.60;99.90;;;;;;5001149;28;20136;-63
2022/04/09 06:31:00;;;;;;;10.93;2.45;;;5.60;99.90;;;;;;4991262;28;20036;-64
2022/04/09 06:33:25;;;;;;;10.63;1.80;;;5.70;99.90;;;;;;4998952;28;20159;-69
2022/04/09 06:35:51;;;;;;;16.33;2.20;;;5.90;99.90;;;;;;4999733;28;20098;-70
2022/04/09 06:38:17;;;;;;;14.00;2.47;;;6.00;99.90;;;;;;4994761;28;20045;-67
2022/04/09 06:40:43;;;;;;;9.50;1.70;;;6.10;99.90;;;;;;4980003;28;20505;-67
2022/04/09 06:43:08;;;;;;;12.35;1.58;;;6.30;99.90;;;;;;5006122;28;20049;-63
2022/04/09 06:45:34;;;;;;;8.15;1.42;;;6.30;99.90;;;;;;5019163;28;20374;-63
2022/04/09 06:48:00;;;;;;;8.20;1.50;;;6.30;99.90;;;;;;5021455;28;20033;-65
2022/04/09 06:50:28;;;;;;;13.73;2.42;;;6.40;99.90;;;;;;5002898;28;20382;-70
2022/04/09 06:52:53;;;;;;;4.18;0.98;;;6.40;99.90;;;;;;5022013;28;20394;-66
2022/04/09 06:55:19;;;;;;;5.18;0.90;;;6.30;99.90;;;;;;5003608;28;20133;-66
2022/04/09 06:57:45;;;;;;;5.50;1.00;;;6.30;99.90;;;;;;4995388;28;20037;-65
2022/04/09 07:00:13;;;;;;;6.50;1.15;;;6.20;99.90;;;;;;5002083;28;20049;-67
2022/04/09 07:02:40;;;;;;;10.10;1.63;;;6.10;99.90;;;;;;5002348;28;20493;-65
2022/04/09 07:05:07;;;;;;;9.80;1.48;;;5.90;99.90;;;;;;5005078;28;20432;-70
2022/04/09 07:07:33;;;;;;;6.60;1.75;;;5.90;99.90;;;;;;5016792;28;20106;-64
2022/04/09 07:10:09;;;;;;;9.02;1.60;;;6.00;99.90;;;;;;5001286;28;20044;-65
2022/04/09 07:12:36;;;;;;;8.85;2.53;;;6.10;99.90;;;;;;5018046;28;20049;-62
2022/04/09 07:15:03;;;;;;;11.90;2.10;;;6.20;99.90;;;;;;4986461;28;20429;-64
2022/04/09 07:17:32;;;;;;;13.98;2.28;;;6.40;99.90;;;;;;4987431;28;20514;-67
2022/04/09 07:20:05;;;;;;;11.73;2.22;;;6.60;99.90;;;;;;5003100;28;20408;-66
2022/04/09 07:22:32;;;;;;;15.68;3.42;;;6.70;99.90;;;;;;4999767;28;20506;-64
2022/04/09 07:24:58;;;;;;;17.75;2.58;;;6.90;99.90;;;;;;5004048;28;20042;-65
2022/04/09 07:27:41;;;;;;;8.25;1.83;;;6.90;99.90;;;;;;4998859;28;20095;-64
2022/04/09 07:30:13;;;;;;;14.00;4.10;;;7.10;99.90;;;;;;4995242;28;20056;-64
2022/04/09 07:32:39;;;;;;;14.57;2.80;;;7.20;99.90;;;;;;4995320;28;20394;-64
2022/04/09 07:35:06;;;;;;;7.20;2.25;;;7.20;99.90;;;;;;5000891;28;20041;-66
2022/04/09 07:37:32;;;;;;;12.70;3.25;;;7.20;99.90;;;;;;4998022;28;20374;-67
2022/04/09 07:39:58;;;;;;;11.98;3.10;;;7.20;99.90;;;;;;5009097;28;20041;-70
2022/04/09 07:42:24;;;;;;;11.55;2.15;;;7.30;99.90;;;;;;5021594;28;20440;-67
2022/04/09 07:44:49;;;;;;;8.13;1.88;;;7.30;99.90;;;;;;4997356;28;20163;-65
2022/04/09 07:47:15;;;;;;;9.40;2.08;;;7.30;99.90;;;;;;4996405;28;20056;-65
2022/04/09 07:49:46;;;;;;;9.25;2.03;;;7.30;99.90;;;;;;4995187;28;20638;-65
2022/04/09 07:52:12;;;;;;;12.02;2.35;;;7.40;99.90;;;;;;5014788;28;20060;-64
2022/04/09 07:54:38;;;;;;;11.45;1.83;;;7.50;99.90;;;;;;5017610;28;20375;-70
2022/04/09 07:57:05;;;;;;;10.57;1.90;;;7.60;99.90;;;;;;4998715;28;20056;-64
2022/04/09 07:59:30;;;;;;;7.35;1.55;;;7.70;99.90;;;;;;5018884;28;20049;-62
2022/04/09 08:01:56;;;;;;;8.05;1.40;;;7.60;99.90;;;;;;4987806;28;20044;-63
2022/04/09 08:04:22;;;;;;;11.30;1.60;;;7.70;99.90;;;;;;4998197;28;20115;-65
2022/04/09 08:06:47;;;;;;;10.75;2.42;;;7.80;99.90;;;;;;4981739;28;20045;-67
2022/04/09 08:09:13;;;;;;;13.43;1.73;;;7.80;99.90;;;;;;4981972;28;20131;-69
2022/04/09 08:11:39;;;;;;;10.30;1.88;;;7.80;99.90;;;;;;5001949;28;20037;-67
2022/04/09 08:14:05;;;;;;;11.43;1.95;;;7.80;99.90;;;;;;5014150;28;20029;-65
2022/04/09 08:16:31;;;;;;;11.32;1.80;;;7.90;99.90;;;;;;5003235;28;20048;-64
2022/04/09 08:18:57;;;;;;;11.02;1.88;;;8.00;99.90;;;;;;5017722;28;20489;-65
2022/04/09 08:21:23;;;;;;;11.68;2.30;;;8.00;99.90;;;;;;4996266;28;20057;-66
2022/04/09 08:23:51;;;;;;;13.85;3.92;;;7.90;99.90;;;;;;5018377;28;20060;-72
2022/04/09 08:26:17;;;;;;;10.30;2.45;;;7.90;99.90;;;;;;4999147;28;20094;-66
2022/04/09 08:28:43;;;;;;;14.18;2.17;;;7.70;99.90;;;;;;4998159;28;20037;-64
2022/04/09 08:31:09;;;;;;;9.55;1.95;;;7.60;99.90;;;;;;5000782;28;20045;-65
2022/04/09 08:33:34;;;;;;;10.95;2.13;;;7.60;99.90;;;;;;5000292;28;20038;-63
2022/04/09 08:36:02;;;;;;;10.70;2.50;;;7.60;99.90;;;;;;5024684;28;20393;-63
2022/04/09 08:38:34;;;;;;;10.40;2.10;;;7.60;99.90;;;;;;4989544;28;20107;-69
2022/04/09 08:41:03;;;;;;;10.85;1.98;;;7.60;99.90;;;;;;5001723;28;20052;-64
2022/04/09 08:43:33;;;;;;;8.45;1.88;;;7.70;99.90;;;;;;4999404;28;20052;-64
2022/04/09 08:46:02;;;;;;;10.52;2.08;;;7.80;99.90;;;;;;5020901;28;20033;-64
2022/04/09 08:48:28;;;;;;;10.55;2.05;;;7.90;99.90;;;;;;5001550;28;20619;-64
2022/04/09 08:50:54;;;;;;;8.13;1.77;;;7.70;99.90;;;;;;5000407;28;21351;-68
2022/04/09 08:53:21;;;;;;;12.25;2.15;;;7.80;99.90;;;;;;5019330;28;20505;-66
2022/04/09 08:55:48;;;;;;;9.07;1.83;;;8.00;99.90;;;;;;4996024;28;20412;-66
2022/04/09 08:58:14;;;;;;;8.23;1.73;;;8.20;99.70;;;;;;4993158;28;20221;-65
2022/04/09 09:00:41;;;;;;;9.10;1.85;;;8.20;98.70;;;;;;5003602;28;20394;-63
2022/04/09 09:03:10;;;;;;;11.45;2.05;;;8.30;99.40;;;;;;5000189;28;20041;-62
2022/04/09 09:05:40;;;;;;;14.18;2.15;;;8.50;99.70;;;;;;4979247;28;20496;-69
2022/04/09 09:08:10;;;;;;;10.52;1.90;;;8.50;99.90;;;;;;4992305;28;20042;-64
2022/04/09 09:10:37;;;;;;;6.90;1.63;;;8.20;99.20;;;;;;5017432;28;20107;-64
2022/04/09 09:13:11;;;;;;;9.77;2.00;;;7.80;99.10;;;;;;4999956;28;20095;-64
2022/04/09 09:15:47;;;;;;;;;;;7.80;99.90;;;;;;5001041;28;20041;-68
2022/04/09 09:18:24;;;;;;;8.23;1.98;;;8.00;99.90;;;;;;5008270;28;19917;-62
2022/04/09 09:20:54;;;;;;;7.57;1.77;;;8.30;99.20;;;;;;5015260;28;20053;-62
2022/04/09 09:23:25;;;;;;;6.40;1.80;;;8.50;98.30;;;;;;5017690;28;20045;-64
2022/04/09 09:25:53;;;;;;;6.43;2.50;;;8.50;97.90;;;;;;4999962;28;20509;-70
2022/04/09 09:28:26;;;;;;;7.72;1.27;;;8.50;98.70;;;;;;5005140;28;20037;-64
2022/04/09 09:30:53;;;;;;;6.38;1.23;;;8.40;98.60;;;;;;5000253;28;20042;-63
2022/04/09 09:33:20;;;;;;;6.32;1.25;;;8.00;99.20;;;;;;5019637;28;20386;-63
2022/04/09 09:35:54;;;;;;;7.25;1.63;;;7.60;99.90;;;;;;4992940;28;20394;-62
2022/04/09 09:38:27;;;;;;;7.10;1.23;;;7.40;99.90;;;;;;5004579;28;20397;-69
2022/04/09 09:40:54;;;;;;;4.13;0.93;;;7.30;99.90;;;;;;4997651;28;20132;-64
2022/04/09 09:43:24;;;;;;;7.18;1.20;;;7.30;99.90;;;;;;5006199;28;20091;-64
2022/04/09 09:45:52;;;;;;;4.82;0.95;;;7.30;99.90;;;;;;5025462;28;20045;-65
2022/04/09 09:48:27;;;;;;;8.15;1.10;;;7.40;99.90;;;;;;4996736;28;20064;-69
2022/04/09 09:50:57;;;;;;;4.82;1.10;;;7.50;99.90;;;;;;5011809;28;20076;-64
2022/04/09 09:53:31;;;;;;;6.93;2.65;;;7.70;99.90;;;;;;5029085;28;20057;-65
2022/04/09 09:55:58;;;;;;;8.43;1.38;;;7.30;99.90;;;;;;5027870;28;20272;-63
2022/04/09 09:58:32;;;;;;;6.28;1.00;;;6.70;99.90;;;;;;5005392;28;20406;-63
2022/04/09 10:00:58;;;;;;;5.20;1.10;;;6.70;99.90;;;;;;5012509;28;20047;-65
2022/04/09 10:03:26;;;;;;;8.30;1.20;;;6.90;99.90;;;;;;5012539;28;20107;-64
2022/04/09 10:05:52;;;;;;;5.10;1.67;;;7.00;99.90;;;;;;5011887;28;20382;-63
2022/04/09 10:08:19;;;;;;;4.97;1.35;;;7.20;99.90;;;;;;5011059;28;20042;-64
2022/04/09 10:10:50;;;;;;;8.98;1.30;;;7.50;99.90;;;;;;5007182;28;20041;-64
2022/04/09 10:13:24;;;;;;;7.03;1.10;;;7.60;99.90;;;;;;5012035;28;20048;-69
2022/04/09 10:15:52;;;;;;;7.55;1.60;;;7.80;99.90;;;;;;5007238;28;20042;-65
2022/04/09 10:18:23;;;;;;;6.22;1.50;;;8.10;99.90;;;;;;5024505;28;20403;-62
2022/04/09 10:21:02;;;;;;;7.47;1.60;;;8.30;99.90;;;;;;5005836;28;20050;-64
2022/04/09 10:23:33;;;;;;;8.98;1.55;;;8.60;99.90;;;;;;5011675;28;20128;-67
2022/04/09 10:26:01;;;;;;;8.35;1.42;;;8.60;99.90;;;;;;5024795;28;20045;-63
2022/04/09 10:28:31;;;;;;;6.60;1.48;;;8.20;99.70;;;;;;5022632;28;20088;-64
2022/04/09 10:30:57;;;;;;;9.40;1.88;;;8.30;99.90;;;;;;5011822;28;20095;-63
2022/04/09 10:33:27;;;;;;;7.65;1.30;;;8.50;99.90;;;;;;5023648;28;20448;-69
2022/04/09 10:35:52;;;;;;;6.32;1.08;;;8.70;99.90;;;;;;4996593;28;20263;-65
2022/04/09 10:38:23;;;;;;;6.32;1.60;;;8.60;98.40;;;;;;5025563;28;20612;-64
2022/04/09 10:40:57;;;;;;;14.90;2.28;;;8.60;98.90;;;;;;5030089;28;20119;-64
2022/04/09 10:43:25;;;;;;;5.68;1.20;;;8.50;99.20;;;;;;4992004;28;20465;-63
2022/04/09 10:46:00;;;;;;;10.07;1.15;;;8.30;98.40;;;;;;5028071;28;20126;-70
2022/04/09 10:48:33;;;;;;;5.55;1.48;;;8.40;98.50;;;;;;5006218;28;20041;-65
2022/04/09 10:51:00;;;;;;;6.47;1.80;;;8.50;96.70;;;;;;5007365;28;20400;-64
2022/04/09 10:53:28;;;;;;;3.92;0.80;;;8.50;94.80;;;;;;5020442;28;20531;-63
2022/04/09 10:56:14;;;;;;;6.18;0.98;;;8.50;95.50;;;;;;5011884;28;20554;-68
2022/04/09 10:59:16;;;;;;;5.68;0.93;;;8.70;94.70;;;;;;5017022;28;20034;-64
2022/04/09 11:01:48;;;;;;;3.30;0.82;;;8.90;95.10;;;;;;5027346;28;20099;-70
2022/04/09 11:04:35;;;;;;;6.85;1.40;;;8.90;96.10;;;;;;5010870;28;20045;-63
2022/04/09 11:07:03;;;;;;;6.80;1.08;;;8.50;96.20;;;;;;5006371;28;20041;-65
2022/04/09 11:09:48;;;;;;;11.13;1.48;;;8.70;97.10;;;;;;5015274;28;20050;-68
2022/04/09 11:12:14;;;;;;;;;;;8.80;96.30;;;;;;5018732;28;20246;-65
2022/04/09 11:15:05;;;;;;;8.43;1.40;;;8.60;95.90;;;;;;5005507;28;19917;-63
2022/04/09 11:17:34;;;;;;;9.88;1.88;;;8.80;97.10;;;;;;5009965;28;20129;-65
2022/04/09 11:20:12;;;;;;;12.45;3.30;;;9.20;97.70;;;;;;5005720;28;20049;-62
2022/04/09 11:22:51;;;;;;;5.43;1.08;;;8.90;96.50;;;;;;5010311;28;20052;-62
2022/04/09 11:25:27;;;;;;;4.65;0.95;;;9.10;97.70;;;;;;5005513;28;20045;-68
2022/04/09 11:28:06;;;;;;;4.00;1.00;;;9.00;97.10;;;;;;5008216;28;20045;-63
2022/04/09 11:30:31;;;;;;;4.72;1.08;;;8.80;97.50;;;;;;5005031;28;20045;-63
2022/04/09 11:32:57;;;;;;;5.95;0.82;;;9.10;97.00;;;;;;4993611;28;20567;-63
2022/04/09 11:35:24;;;;;;;2.47;0.70;;;8.80;95.70;;;;;;5010379;28;20545;-68
2022/04/09 11:37:51;;;;;;;4.22;1.02;;;8.50;95.50;;;;;;4999677;28;20048;-62
2022/04/09 11:40:21;;;;;;;2.47;0.63;;;8.50;96.60;;;;;;5004676;28;20038;-63
2022/04/09 11:42:49;;;;;;;2.10;0.38;;;8.30;96.70;;;;;;4990361;28;20087;-65
2022/04/09 11:45:19;;;;;;;1.65;0.38;;;8.00;96.40;;;;;;5002799;28;20085;-64
2022/04/09 11:47:45;;;;;;;2.33;0.50;;;7.80;97.10;;;;;;5009391;28;20545;-70
2022/04/09 11:50:14;;;;;;;1.05;0.43;;;8.00;98.20;;;;;;5004754;28;20110;-65
2022/04/09 11:52:41;;;;;;;1.92;0.50;;;7.70;97.60;;;;;;5021813;28;20064;-65
2022/04/09 11:55:11;;;;;;;2.55;0.50;;;7.70;98.30;;;;;;5028187;28;20048;-65
2022/04/09 11:57:39;;;;;;;3.38;0.68;;;7.60;99.10;;;;;;5010355;28;20037;-63
2022/04/09 12:00:09;;;;;;;6.90;0.90;;;7.50;99.90;;;;;;4982627;28;20057;-70
2022/04/09 12:02:36;;;;;;;4.53;1.00;;;7.60;99.90;;;;;;5006459;28;20527;-65
2022/04/09 12:05:02;;;;;;;4.60;0.80;;;7.50;99.90;;;;;;4993203;28;20033;-64
2022/04/09 12:07:30;;;;;;;4.53;1.00;;;7.60;99.90;;;;;;5025597;28;20048;-63
2022/04/09 12:09:56;;;;;;;6.85;1.00;;;7.80;99.90;;;;;;5023803;28;20034;-63
2022/04/09 12:12:23;;;;;;;5.55;1.42;;;8.30;99.90;;;;;;5025493;28;20112;-63
2022/04/09 12:14:54;;;;;;;6.70;1.00;;;8.60;99.30;;;;;;5005451;28;20183;-71
2022/04/09 12:17:22;;;;;;;3.28;1.10;;;9.10;98.50;;;;;;5006478;28;20049;-65
2022/04/09 12:19:51;;;;;;;6.07;1.50;;;9.20;97.50;;;;;;4987649;28;20192;-62
2022/04/09 12:22:20;;;;;;;3.60;0.80;;;9.30;96.20;;;;;;5021759;28;20038;-63
2022/04/09 12:24:52;;;;;;;5.07;1.30;;;9.30;94.90;;;;;;5009551;28;20057;-64
2022/04/09 12:27:19;;;;;;;4.53;1.25;;;9.20;95.00;;;;;;5025116;28;20036;-68
2022/04/09 12:29:51;;;;;;;6.80;1.67;;;9.30;95.90;;;;;;4996263;28;20046;-60
2022/04/09 12:32:26;;;;;;;8.27;1.40;;;9.40;95.20;;;;;;4985755;28;20091;-62
2022/04/09 12:34:52;;;;;;;6.60;1.38;;;9.30;95.50;;;;;;4999823;28;20103;-63
2022/04/09 12:37:19;;;;;;;6.82;1.40;;;9.60;95.20;;;;;;4983235;28;20462;-71
2022/04/09 12:39:44;;;;;;;8.45;1.90;;;9.40;95.00;;;;;;4983294;28;20441;-65
2022/04/09 12:42:10;;;;;;;5.07;1.50;;;9.10;96.70;;;;;;4979771;28;20069;-60
2022/04/09 12:44:36;;;;;;;5.53;1.35;;;8.50;97.30;;;;;;4994375;28;20113;-62
2022/04/09 12:47:04;;;;;;;7.38;1.60;;;7.80;99.50;;;;;;4984957;28;20092;-64
2022/04/09 12:49:34;;;;;;;9.82;1.63;;;7.60;99.90;;;;;;5017058;28;20053;-64
2022/04/09 12:52:00;;;;;;;5.60;1.52;;;7.40;99.90;;;;;;4989520;28;20041;-69
2022/04/09 12:54:30;;;;;;;3.67;0.95;;;7.40;99.00;;;;;;5000975;28;20045;-63
2022/04/09 12:57:04;;;;;;;3.88;0.68;;;7.80;98.70;;;;;;5021679;28;20058;-63
2022/04/09 12:59:29;;;;;;;3.45;0.85;;;8.10;95.50;;;;;;5001114;28;20573;-63